Sheng Jia 1 — XUGG7 — position and weather

sailwx.info

Track history (hours):
 
Tides and Currents Weather Stations Pressure Air Temp Water Temp Dewpoint Dewpoint Depression Visibility Wind Speed Wind Dir Waves Ship Positions

Sheng Jia 1

Last reported at 2016-Mar-03 21:17 UTC. Time now 2016-Dec-08 00:18 UTC.
Position N 33°41' E 129°55'.
Warning: this ship's position is months out of date.

Length 73 m; draft 4.2 m.

Type: Cargo ship. MMSI: 515744000.

Date/timePositionNaut miles runAvg speedWind from/ knotsBaromVisibWave heightAir tempDewpointWater temp
2016-Mar-03 21:17N 33°41' E 129°55'710.0
2016-Mar-03 20:33N 33°44' E 130°02'1110.2
2016-Mar-03 19:30N 33°50' E 130°13'227 8.3
2016-Mar-02 16:07N 34°08' E 134°45'256 7.4
2016-Mar-01 05:28N 35°13' E 139°46'9 9.8
2016-Mar-01 04:33N 35°21' E 139°42'9 9.3
2016-Mar-01 03:33N 35°28' E 139°50'7 0.5
2016-Feb-29 12:31N 35°30' E 139°58'0 0.0
2016-Feb-29 11:27N 35°30' E 139°58'2 2.1
2016-Feb-29 10:22N 35°28' E 139°60'0 0.0
2016-Feb-29 09:28N 35°28' E 139°60'0 0.0
2016-Feb-29 07:28N 35°28' E 139°60'0 0.0
2016-Feb-29 06:22N 35°28' E 139°60'0 0.0
2016-Feb-29 05:28N 35°28' E 139°60'0 0.0
2016-Feb-29 04:25N 35°28' E 139°60'0 0.0
2016-Feb-29 03:20N 35°28' E 139°60'0 0.0
2016-Feb-29 02:33N 35°28' E 139°60'0 0.0
2016-Feb-29 01:23N 35°28' E 139°60'0 0.0
2016-Feb-29 00:29N 35°28' E 139°60'0 0.0
2016-Feb-28 23:17N 35°28' E 139°60'0 0.0
2016-Feb-28 22:28N 35°28' E 139°60'0 0.0
2016-Feb-28 21:28N 35°28' E 139°60'2 2.3
2016-Feb-28 20:28N 35°30' E 139°58'0 0.0
2016-Feb-28 19:33N 35°30' E 139°58'0 0.0
2016-Feb-28 18:32N 35°30' E 139°58'0 0.0
2016-Feb-28 17:32N 35°30' E 139°58'0 0.0
2016-Feb-28 16:26N 35°30' E 139°58'0 0.1
2016-Feb-28 15:26N 35°30' E 139°58'0 0.1
2016-Feb-28 14:32N 35°30' E 139°58'0 0.0
2016-Feb-28 13:32N 35°30' E 139°58'0 0.0
2016-Feb-28 12:20N 35°30' E 139°58'0 0.0
2016-Feb-28 11:32N 35°30' E 139°58'0 0.0
2016-Feb-28 10:32N 35°30' E 139°58'0 0.0
2016-Feb-28 09:32N 35°30' E 139°58'0 0.0
2016-Feb-28 08:26N 35°30' E 139°58'0 0.0
2016-Feb-28 07:26N 35°30' E 139°58'0 0.0
2016-Feb-28 06:32N 35°30' E 139°58'0 0.0
2016-Feb-28 05:29N 35°30' E 139°58'2 2.6
2016-Feb-28 04:33N 35°29' E 139°55'9 8.7
2016-Feb-28 03:33N 35°24' E 139°47'8 8.2
2016-Feb-28 02:34N 35°16' E 139°46'8 8.3
2016-Feb-28 01:33N 35°08' E 139°44'  
Track history (hours):
 
Tides and Currents Weather Stations Pressure Air Temp Water Temp Dewpoint Dewpoint Depression Visibility Wind Speed Wind Dir Waves Ship Positions

Sheng Jia 1

Last reported at 2016-Mar-03 21:17 UTC. Time now 2016-Dec-08 00:18 UTC.
Position N 33°41' E 129°55'.
Warning: this ship's position is months out of date.

Length 73 m; draft 4.2 m.

Type: Cargo ship. MMSI: 515744000.

Date/timePositionNaut miles runAvg speedWind from/ knotsBaromVisibWave heightAir tempDewpointWater temp
2016-Mar-03 21:17N 33°41' E 129°55'710.0
2016-Mar-03 20:33N 33°44' E 130°02'1110.2
2016-Mar-03 19:30N 33°50' E 130°13'227 8.3
2016-Mar-02 16:07N 34°08' E 134°45'256 7.4
2016-Mar-01 05:28N 35°13' E 139°46'9 9.8
2016-Mar-01 04:33N 35°21' E 139°42'9 9.3
2016-Mar-01 03:33N 35°28' E 139°50'7 0.5
2016-Feb-29 12:31N 35°30' E 139°58'0 0.0
2016-Feb-29 11:27N 35°30' E 139°58'2 2.1
2016-Feb-29 10:22N 35°28' E 139°60'0 0.0
2016-Feb-29 09:28N 35°28' E 139°60'0 0.0
2016-Feb-29 07:28N 35°28' E 139°60'0 0.0
2016-Feb-29 06:22N 35°28' E 139°60'0 0.0
2016-Feb-29 05:28N 35°28' E 139°60'0 0.0
2016-Feb-29 04:25N 35°28' E 139°60'0 0.0
2016-Feb-29 03:20N 35°28' E 139°60'0 0.0
2016-Feb-29 02:33N 35°28' E 139°60'0 0.0
2016-Feb-29 01:23N 35°28' E 139°60'0 0.0
2016-Feb-29 00:29N 35°28' E 139°60'0 0.0
2016-Feb-28 23:17N 35°28' E 139°60'0 0.0
2016-Feb-28 22:28N 35°28' E 139°60'0 0.0
2016-Feb-28 21:28N 35°28' E 139°60'2 2.3
2016-Feb-28 20:28N 35°30' E 139°58'0 0.0
2016-Feb-28 19:33N 35°30' E 139°58'0 0.0
2016-Feb-28 18:32N 35°30' E 139°58'0 0.0
2016-Feb-28 17:32N 35°30' E 139°58'0 0.0
2016-Feb-28 16:26N 35°30' E 139°58'0 0.1
2016-Feb-28 15:26N 35°30' E 139°58'0 0.1
2016-Feb-28 14:32N 35°30' E 139°58'0 0.0
2016-Feb-28 13:32N 35°30' E 139°58'0 0.0
2016-Feb-28 12:20N 35°30' E 139°58'0 0.0
2016-Feb-28 11:32N 35°30' E 139°58'0 0.0
2016-Feb-28 10:32N 35°30' E 139°58'0 0.0
2016-Feb-28 09:32N 35°30' E 139°58'0 0.0
2016-Feb-28 08:26N 35°30' E 139°58'0 0.0
2016-Feb-28 07:26N 35°30' E 139°58'0 0.0
2016-Feb-28 06:32N 35°30' E 139°58'0 0.0
2016-Feb-28 05:29N 35°30' E 139°58'2 2.6
2016-Feb-28 04:33N 35°29' E 139°55'9 8.7
2016-Feb-28 03:33N 35°24' E 139°47'8 8.2
2016-Feb-28 02:34N 35°16' E 139°46'8 8.3
2016-Feb-28 01:33N 35°08' E 139°44'  

Dump ship's entire track history